sensor_id;sensor_type;location;lat;lon;timestamp;P1;durP1;ratioP1;P2;durP2;ratioP2
10509;SDS011;5303;53.266;10.410;2023-10-13T00:00:08;9.57;;;4.23;;
10509;SDS011;5303;53.266;10.410;2023-10-13T00:02:50;9.93;;;4.57;;
10509;SDS011;5303;53.266;10.410;2023-10-13T00:05:17;12.03;;;5.33;;
10509;SDS011;5303;53.266;10.410;2023-10-13T00:07:43;8.40;;;4.87;;
10509;SDS011;5303;53.266;10.410;2023-10-13T00:10:08;11.23;;;5.77;;
10509;SDS011;5303;53.266;10.410;2023-10-13T00:12:43;14.13;;;5.63;;
10509;SDS011;5303;53.266;10.410;2023-10-13T00:15:14;9.30;;;5.47;;
10509;SDS011;5303;53.266;10.410;2023-10-13T00:17:42;11.70;;;6.13;;
10509;SDS011;5303;53.266;10.410;2023-10-13T00:20:07;10.73;;;6.10;;
10509;SDS011;5303;53.266;10.410;2023-10-13T00:22:53;11.50;;;5.60;;
10509;SDS011;5303;53.266;10.410;2023-10-13T00:25:21;13.87;;;5.90;;
10509;SDS011;5303;53.266;10.410;2023-10-13T00:27:51;12.90;;;6.03;;
10509;SDS011;5303;53.266;10.410;2023-10-13T00:30:17;14.20;;;6.47;;
10509;SDS011;5303;53.266;10.410;2023-10-13T00:32:43;13.43;;;6.73;;
10509;SDS011;5303;53.266;10.410;2023-10-13T00:35:10;12.37;;;6.07;;
10509;SDS011;5303;53.266;10.410;2023-10-13T00:37:50;12.23;;;6.73;;
10509;SDS011;5303;53.266;10.410;2023-10-13T00:40:18;10.20;;;6.83;;
10509;SDS011;5303;53.266;10.410;2023-10-13T00:42:56;11.17;;;6.63;;
10509;SDS011;5303;53.266;10.410;2023-10-13T00:48:40;13.67;;;6.60;;
10509;SDS011;5303;53.266;10.410;2023-10-13T00:51:08;17.80;;;7.97;;
10509;SDS011;5303;53.266;10.410;2023-10-13T00:53:59;15.27;;;7.70;;
10509;SDS011;5303;53.266;10.410;2023-10-13T00:56:27;13.57;;;7.07;;
10509;SDS011;5303;53.266;10.410;2023-10-13T00:58:54;13.77;;;7.33;;
10509;SDS011;5303;53.266;10.410;2023-10-13T01:01:22;14.07;;;7.60;;
10509;SDS011;5303;53.266;10.410;2023-10-13T01:03:52;15.40;;;8.43;;
10509;SDS011;5303;53.266;10.410;2023-10-13T01:06:20;19.33;;;8.73;;
10509;SDS011;5303;53.266;10.410;2023-10-13T01:08:56;13.27;;;8.27;;
10509;SDS011;5303;53.266;10.410;2023-10-13T01:11:24;16.40;;;8.27;;
10509;SDS011;5303;53.266;10.410;2023-10-13T01:13:52;15.33;;;8.10;;
10509;SDS011;5303;53.266;10.410;2023-10-13T01:16:19;15.43;;;8.57;;
10509;SDS011;5303;53.266;10.410;2023-10-13T01:18:48;18.50;;;9.00;;
10509;SDS011;5303;53.266;10.410;2023-10-13T01:21:17;17.07;;;9.03;;
10509;SDS011;5303;53.266;10.410;2023-10-13T01:23:45;15.67;;;9.00;;
10509;SDS011;5303;53.266;10.410;2023-10-13T01:26:13;15.23;;;8.40;;
10509;SDS011;5303;53.266;10.410;2023-10-13T01:28:46;14.03;;;9.10;;
10509;SDS011;5303;53.266;10.410;2023-10-13T01:31:12;18.30;;;9.20;;
10509;SDS011;5303;53.266;10.410;2023-10-13T01:33:58;19.80;;;9.83;;
10509;SDS011;5303;53.266;10.410;2023-10-13T01:36:24;17.47;;;9.60;;
10509;SDS011;5303;53.266;10.410;2023-10-13T01:38:52;16.00;;;9.30;;
10509;SDS011;5303;53.266;10.410;2023-10-13T01:41:18;17.60;;;9.27;;
10509;SDS011;5303;53.266;10.410;2023-10-13T01:43:45;20.33;;;10.13;;
10509;SDS011;5303;53.266;10.410;2023-10-13T01:46:10;15.23;;;9.03;;
10509;SDS011;5303;53.266;10.410;2023-10-13T01:48:38;20.07;;;10.27;;
10509;SDS011;5303;53.266;10.410;2023-10-13T01:51:04;16.80;;;10.17;;
10509;SDS011;5303;53.266;10.410;2023-10-13T01:53:34;17.17;;;9.80;;
10509;SDS011;5303;53.266;10.410;2023-10-13T01:56:01;19.30;;;9.23;;
10509;SDS011;5303;53.266;10.410;2023-10-13T01:58:30;16.57;;;10.53;;
10509;SDS011;5303;53.266;10.410;2023-10-13T02:00:56;18.53;;;10.63;;
10509;SDS011;5303;53.266;10.410;2023-10-13T02:03:21;19.60;;;10.77;;
10509;SDS011;5303;53.266;10.410;2023-10-13T02:05:48;17.77;;;10.77;;
10509;SDS011;5303;53.266;10.410;2023-10-13T02:08:18;18.60;;;11.00;;
10509;SDS011;5303;53.266;10.410;2023-10-13T02:13:16;20.80;;;11.00;;
10509;SDS011;5303;53.266;10.410;2023-10-13T02:15:43;18.73;;;10.57;;
10509;SDS011;5303;53.266;10.410;2023-10-13T02:18:10;22.37;;;12.27;;
10509;SDS011;5303;53.266;10.410;2023-10-13T02:20:38;17.50;;;10.67;;
10509;SDS011;5303;53.266;10.410;2023-10-13T02:23:08;21.47;;;11.80;;
10509;SDS011;5303;53.266;10.410;2023-10-13T02:25:35;18.93;;;11.63;;
10509;SDS011;5303;53.266;10.410;2023-10-13T02:28:07;24.07;;;11.63;;
10509;SDS011;5303;53.266;10.410;2023-10-13T02:30:38;19.03;;;11.63;;
10509;SDS011;5303;53.266;10.410;2023-10-13T02:33:12;17.90;;;11.57;;
10509;SDS011;5303;53.266;10.410;2023-10-13T02:35:39;18.50;;;11.47;;
10509;SDS011;5303;53.266;10.410;2023-10-13T02:38:08;20.37;;;12.30;;
10509;SDS011;5303;53.266;10.410;2023-10-13T02:40:38;20.23;;;11.87;;
10509;SDS011;5303;53.266;10.410;2023-10-13T02:43:04;18.90;;;11.77;;
10509;SDS011;5303;53.266;10.410;2023-10-13T02:45:31;16.17;;;10.87;;
10509;SDS011;5303;53.266;10.410;2023-10-13T02:47:57;17.93;;;11.60;;
10509;SDS011;5303;53.266;10.410;2023-10-13T02:50:38;20.47;;;11.47;;
10509;SDS011;5303;53.266;10.410;2023-10-13T02:53:07;15.10;;;11.63;;
10509;SDS011;5303;53.266;10.410;2023-10-13T02:55:37;18.83;;;11.47;;
10509;SDS011;5303;53.266;10.410;2023-10-13T02:58:04;18.00;;;11.10;;
10509;SDS011;5303;53.266;10.410;2023-10-13T03:00:29;18.57;;;11.83;;
10509;SDS011;5303;53.266;10.410;2023-10-13T03:02:56;17.20;;;11.93;;
10509;SDS011;5303;53.266;10.410;2023-10-13T03:05:26;18.70;;;11.57;;
10509;SDS011;5303;53.266;10.410;2023-10-13T03:07:56;17.57;;;11.17;;
10509;SDS011;5303;53.266;10.410;2023-10-13T03:10:23;16.47;;;9.87;;
10509;SDS011;5303;53.266;10.410;2023-10-13T03:12:53;18.00;;;11.63;;
10509;SDS011;5303;53.266;10.410;2023-10-13T03:15:19;14.80;;;10.70;;
10509;SDS011;5303;53.266;10.410;2023-10-13T03:17:46;15.50;;;10.50;;
10509;SDS011;5303;53.266;10.410;2023-10-13T03:20:15;18.43;;;11.97;;
10509;SDS011;5303;53.266;10.410;2023-10-13T03:22:47;18.20;;;11.60;;
10509;SDS011;5303;53.266;10.410;2023-10-13T03:25:15;18.77;;;11.10;;
10509;SDS011;5303;53.266;10.410;2023-10-13T03:28:07;18.53;;;12.50;;
10509;SDS011;5303;53.266;10.410;2023-10-13T03:30:36;18.80;;;11.13;;
10509;SDS011;5303;53.266;10.410;2023-10-13T03:33:06;18.80;;;12.13;;
10509;SDS011;5303;53.266;10.410;2023-10-13T03:35:35;19.67;;;12.20;;
10509;SDS011;5303;53.266;10.410;2023-10-13T03:38:05;21.70;;;13.33;;
10509;SDS011;5303;53.266;10.410;2023-10-13T03:40:49;17.43;;;12.30;;
10509;SDS011;5303;53.266;10.410;2023-10-13T03:43:22;21.73;;;12.33;;
10509;SDS011;5303;53.266;10.410;2023-10-13T03:45:49;18.67;;;12.20;;
10509;SDS011;5303;53.266;10.410;2023-10-13T03:48:25;20.97;;;12.63;;
10509;SDS011;5303;53.266;10.410;2023-10-13T03:53:36;21.17;;;12.97;;
10509;SDS011;5303;53.266;10.410;2023-10-13T03:56:17;20.17;;;13.07;;
10509;SDS011;5303;53.266;10.410;2023-10-13T03:58:51;19.17;;;13.27;;
10509;SDS011;5303;53.266;10.410;2023-10-13T04:01:31;21.40;;;13.00;;
10509;SDS011;5303;53.266;10.410;2023-10-13T04:03:58;25.93;;;14.97;;
10509;SDS011;5303;53.266;10.410;2023-10-13T04:06:35;24.27;;;14.70;;
10509;SDS011;5303;53.266;10.410;2023-10-13T04:09:15;19.90;;;13.57;;
10509;SDS011;5303;53.266;10.410;2023-10-13T04:14:44;26.30;;;16.07;;
10509;SDS011;5303;53.266;10.410;2023-10-13T04:17:28;21.67;;;13.73;;
10509;SDS011;5303;53.266;10.410;2023-10-13T04:19:56;25.83;;;15.70;;
10509;SDS011;5303;53.266;10.410;2023-10-13T04:22:41;22.40;;;15.33;;
10509;SDS011;5303;53.266;10.410;2023-10-13T04:25:20;22.97;;;15.17;;
10509;SDS011;5303;53.266;10.410;2023-10-13T04:28:00;22.83;;;15.67;;
10509;SDS011;5303;53.266;10.410;2023-10-13T04:30:37;30.87;;;18.87;;
10509;SDS011;5303;53.266;10.410;2023-10-13T04:33:23;30.87;;;18.30;;
10509;SDS011;5303;53.266;10.410;2023-10-13T04:36:08;31.60;;;19.47;;
10509;SDS011;5303;53.266;10.410;2023-10-13T04:38:53;30.67;;;18.83;;
10509;SDS011;5303;53.266;10.410;2023-10-13T04:44:09;39.53;;;24.70;;
10509;SDS011;5303;53.266;10.410;2023-10-13T04:46:54;40.23;;;25.30;;
10509;SDS011;5303;53.266;10.410;2023-10-13T04:49:20;41.80;;;25.90;;
10509;SDS011;5303;53.266;10.410;2023-10-13T04:51:54;44.47;;;25.23;;
10509;SDS011;5303;53.266;10.410;2023-10-13T04:54:46;38.73;;;24.90;;
10509;SDS011;5303;53.266;10.410;2023-10-13T04:57:22;39.30;;;24.70;;
10509;SDS011;5303;53.266;10.410;2023-10-13T05:00:03;44.87;;;27.03;;
10509;SDS011;5303;53.266;10.410;2023-10-13T05:02:36;40.50;;;27.03;;
10509;SDS011;5303;53.266;10.410;2023-10-13T05:07:31;40.13;;;26.30;;
10509;SDS011;5303;53.266;10.410;2023-10-13T05:10:16;42.00;;;26.43;;
10509;SDS011;5303;53.266;10.410;2023-10-13T05:13:00;43.23;;;26.83;;
10509;SDS011;5303;53.266;10.410;2023-10-13T05:15:44;43.50;;;27.73;;
10509;SDS011;5303;53.266;10.410;2023-10-13T05:18:30;46.57;;;28.43;;
10509;SDS011;5303;53.266;10.410;2023-10-13T05:21:14;48.03;;;28.90;;
10509;SDS011;5303;53.266;10.410;2023-10-13T05:23:58;44.07;;;28.67;;
10509;SDS011;5303;53.266;10.410;2023-10-13T05:26:42;48.60;;;29.10;;
10509;SDS011;5303;53.266;10.410;2023-10-13T05:29:26;50.53;;;30.47;;
10509;SDS011;5303;53.266;10.410;2023-10-13T05:32:10;42.77;;;28.33;;
10509;SDS011;5303;53.266;10.410;2023-10-13T05:34:53;46.57;;;30.67;;
10509;SDS011;5303;53.266;10.410;2023-10-13T05:37:37;45.37;;;30.00;;
10509;SDS011;5303;53.266;10.410;2023-10-13T05:40:21;53.27;;;32.67;;
10509;SDS011;5303;53.266;10.410;2023-10-13T05:43:05;46.73;;;32.80;;
10509;SDS011;5303;53.266;10.410;2023-10-13T05:45:49;51.77;;;31.97;;
10509;SDS011;5303;53.266;10.410;2023-10-13T05:48:33;50.23;;;31.83;;
10509;SDS011;5303;53.266;10.410;2023-10-13T05:51:28;44.23;;;31.20;;
10509;SDS011;5303;53.266;10.410;2023-10-13T05:54:11;49.40;;;32.13;;
10509;SDS011;5303;53.266;10.410;2023-10-13T05:56:49;48.00;;;32.70;;
10509;SDS011;5303;53.266;10.410;2023-10-13T05:59:34;53.43;;;34.00;;
10509;SDS011;5303;53.266;10.410;2023-10-13T06:02:20;47.63;;;31.67;;
10509;SDS011;5303;53.266;10.410;2023-10-13T06:05:05;48.70;;;32.33;;
10509;SDS011;5303;53.266;10.410;2023-10-13T06:07:51;49.67;;;31.97;;
10509;SDS011;5303;53.266;10.410;2023-10-13T06:10:35;44.00;;;30.13;;
10509;SDS011;5303;53.266;10.410;2023-10-13T06:13:20;47.93;;;30.63;;
10509;SDS011;5303;53.266;10.410;2023-10-13T06:18:55;43.37;;;30.97;;
10509;SDS011;5303;53.266;10.410;2023-10-13T06:21:39;45.37;;;31.30;;
10509;SDS011;5303;53.266;10.410;2023-10-13T06:24:23;41.67;;;30.10;;
10509;SDS011;5303;53.266;10.410;2023-10-13T06:27:06;40.50;;;28.30;;
10509;SDS011;5303;53.266;10.410;2023-10-13T06:29:50;50.10;;;31.37;;
10509;SDS011;5303;53.266;10.410;2023-10-13T06:32:18;42.30;;;29.07;;
10509;SDS011;5303;53.266;10.410;2023-10-13T06:34:44;42.23;;;30.30;;
10509;SDS011;5303;53.266;10.410;2023-10-13T06:37:11;40.40;;;28.67;;
10509;SDS011;5303;53.266;10.410;2023-10-13T06:40:12;40.33;;;28.40;;
10509;SDS011;5303;53.266;10.410;2023-10-13T06:42:50;43.13;;;29.70;;
10509;SDS011;5303;53.266;10.410;2023-10-13T06:45:15;39.60;;;26.83;;
10509;SDS011;5303;53.266;10.410;2023-10-13T06:47:42;37.97;;;27.60;;
10509;SDS011;5303;53.266;10.410;2023-10-13T06:50:11;36.17;;;28.17;;
10509;SDS011;5303;53.266;10.410;2023-10-13T06:52:43;38.33;;;28.30;;
10509;SDS011;5303;53.266;10.410;2023-10-13T06:55:09;41.47;;;27.33;;
10509;SDS011;5303;53.266;10.410;2023-10-13T06:57:54;35.90;;;26.70;;
10509;SDS011;5303;53.266;10.410;2023-10-13T07:00:24;34.03;;;26.67;;
10509;SDS011;5303;53.266;10.410;2023-10-13T07:02:55;34.10;;;25.90;;
10509;SDS011;5303;53.266;10.410;2023-10-13T07:05:33;36.50;;;25.90;;
10509;SDS011;5303;53.266;10.410;2023-10-13T07:07:59;31.47;;;24.00;;
10509;SDS011;5303;53.266;10.410;2023-10-13T07:10:29;33.67;;;24.37;;
10509;SDS011;5303;53.266;10.410;2023-10-13T07:12:55;30.73;;;23.93;;
10509;SDS011;5303;53.266;10.410;2023-10-13T07:15:25;30.10;;;22.23;;
10509;SDS011;5303;53.266;10.410;2023-10-13T07:17:54;32.77;;;22.30;;
10509;SDS011;5303;53.266;10.410;2023-10-13T07:20:27;28.67;;;21.50;;
10509;SDS011;5303;53.266;10.410;2023-10-13T07:22:52;25.73;;;20.70;;
10509;SDS011;5303;53.266;10.410;2023-10-13T07:25:31;27.37;;;21.67;;
10509;SDS011;5303;53.266;10.410;2023-10-13T07:28:06;28.43;;;21.20;;
10509;SDS011;5303;53.266;10.410;2023-10-13T07:30:34;25.80;;;20.67;;
10509;SDS011;5303;53.266;10.410;2023-10-13T07:33:18;27.87;;;22.30;;
10509;SDS011;5303;53.266;10.410;2023-10-13T07:35:48;26.50;;;20.87;;
10509;SDS011;5303;53.266;10.410;2023-10-13T07:38:25;24.57;;;19.80;;
10509;SDS011;5303;53.266;10.410;2023-10-13T07:40:51;26.27;;;20.33;;
10509;SDS011;5303;53.266;10.410;2023-10-13T07:43:16;26.53;;;20.50;;
10509;SDS011;5303;53.266;10.410;2023-10-13T07:45:46;23.33;;;19.00;;
10509;SDS011;5303;53.266;10.410;2023-10-13T07:48:16;22.77;;;18.80;;
10509;SDS011;5303;53.266;10.410;2023-10-13T07:51:05;25.60;;;17.57;;
10509;SDS011;5303;53.266;10.410;2023-10-13T07:53:35;20.20;;;16.07;;
10509;SDS011;5303;53.266;10.410;2023-10-13T07:56:04;18.13;;;15.87;;
10509;SDS011;5303;53.266;10.410;2023-10-13T07:58:33;19.67;;;16.77;;
10509;SDS011;5303;53.266;10.410;2023-10-13T08:00:59;18.97;;;15.80;;
10509;SDS011;5303;53.266;10.410;2023-10-13T08:03:41;19.97;;;15.50;;
10509;SDS011;5303;53.266;10.410;2023-10-13T08:06:13;18.43;;;15.07;;
10509;SDS011;5303;53.266;10.410;2023-10-13T08:08:39;20.07;;;15.47;;
10509;SDS011;5303;53.266;10.410;2023-10-13T08:13:39;21.27;;;16.73;;
10509;SDS011;5303;53.266;10.410;2023-10-13T08:16:11;22.13;;;16.37;;
10509;SDS011;5303;53.266;10.410;2023-10-13T08:18:46;24.97;;;16.27;;
10509;SDS011;5303;53.266;10.410;2023-10-13T08:21:14;19.03;;;15.87;;
10509;SDS011;5303;53.266;10.410;2023-10-13T08:23:51;19.27;;;15.40;;
10509;SDS011;5303;53.266;10.410;2023-10-13T08:26:20;17.57;;;14.00;;
10509;SDS011;5303;53.266;10.410;2023-10-13T08:28:56;16.37;;;13.90;;
10509;SDS011;5303;53.266;10.410;2023-10-13T08:31:21;16.73;;;12.80;;
10509;SDS011;5303;53.266;10.410;2023-10-13T08:33:50;13.47;;;11.33;;
10509;SDS011;5303;53.266;10.410;2023-10-13T08:36:15;12.30;;;10.83;;
10509;SDS011;5303;53.266;10.410;2023-10-13T08:38:54;12.90;;;10.77;;
10509;SDS011;5303;53.266;10.410;2023-10-13T08:41:20;14.40;;;10.00;;
10509;SDS011;5303;53.266;10.410;2023-10-13T08:43:49;12.37;;;8.60;;
10509;SDS011;5303;53.266;10.410;2023-10-13T08:46:15;10.37;;;8.83;;
10509;SDS011;5303;53.266;10.410;2023-10-13T08:48:55;10.03;;;8.10;;
10509;SDS011;5303;53.266;10.410;2023-10-13T08:51:41;9.10;;;8.17;;
10509;SDS011;5303;53.266;10.410;2023-10-13T08:54:30;10.60;;;7.63;;
10509;SDS011;5303;53.266;10.410;2023-10-13T08:57:04;9.93;;;7.33;;
10509;SDS011;5303;53.266;10.410;2023-10-13T08:59:45;7.70;;;6.87;;
10509;SDS011;5303;53.266;10.410;2023-10-13T09:02:18;7.67;;;6.80;;
10509;SDS011;5303;53.266;10.410;2023-10-13T09:04:47;10.17;;;6.87;;
10509;SDS011;5303;53.266;10.410;2023-10-13T09:07:24;7.77;;;6.40;;
10509;SDS011;5303;53.266;10.410;2023-10-13T09:09:50;12.90;;;6.50;;
10509;SDS011;5303;53.266;10.410;2023-10-13T09:14:58;8.03;;;5.93;;
10509;SDS011;5303;53.266;10.410;2023-10-13T09:17:49;9.40;;;5.97;;
10509;SDS011;5303;53.266;10.410;2023-10-13T09:20:38;7.47;;;5.87;;
10509;SDS011;5303;53.266;10.410;2023-10-13T09:23:07;7.57;;;6.00;;
10509;SDS011;5303;53.266;10.410;2023-10-13T09:26:05;7.13;;;5.40;;
10509;SDS011;5303;53.266;10.410;2023-10-13T09:28:34;6.73;;;5.77;;
10509;SDS011;5303;53.266;10.410;2023-10-13T09:31:02;8.13;;;6.07;;
10509;SDS011;5303;53.266;10.410;2023-10-13T09:33:28;10.50;;;5.80;;
10509;SDS011;5303;53.266;10.410;2023-10-13T09:36:15;6.60;;;5.40;;
10509;SDS011;5303;53.266;10.410;2023-10-13T09:38:42;5.73;;;5.17;;
10509;SDS011;5303;53.266;10.410;2023-10-13T09:41:28;6.20;;;5.53;;
10509;SDS011;5303;53.266;10.410;2023-10-13T09:43:57;7.50;;;5.67;;
10509;SDS011;5303;53.266;10.410;2023-10-13T09:46:23;7.30;;;5.50;;
10509;SDS011;5303;53.266;10.410;2023-10-13T09:48:59;9.60;;;6.30;;
10509;SDS011;5303;53.266;10.410;2023-10-13T09:51:39;9.00;;;5.83;;
10509;SDS011;5303;53.266;10.410;2023-10-13T09:54:11;9.00;;;5.97;;
10509;SDS011;5303;53.266;10.410;2023-10-13T09:56:50;8.80;;;5.80;;
10509;SDS011;5303;53.266;10.410;2023-10-13T10:02:05;8.40;;;5.83;;
10509;SDS011;5303;53.266;10.410;2023-10-13T10:04:50;8.70;;;6.07;;
10509;SDS011;5303;53.266;10.410;2023-10-13T10:07:23;10.90;;;5.80;;
10509;SDS011;5303;53.266;10.410;2023-10-13T10:09:59;7.90;;;5.37;;
10509;SDS011;5303;53.266;10.410;2023-10-13T10:15:20;9.47;;;6.07;;
10509;SDS011;5303;53.266;10.410;2023-10-13T10:17:59;6.93;;;5.97;;
10509;SDS011;5303;53.266;10.410;2023-10-13T10:20:31;9.57;;;6.40;;
10509;SDS011;5303;53.266;10.410;2023-10-13T10:23:07;8.90;;;6.07;;
10509;SDS011;5303;53.266;10.410;2023-10-13T10:25:37;7.70;;;5.90;;
10509;SDS011;5303;53.266;10.410;2023-10-13T10:28:04;9.70;;;6.63;;
10509;SDS011;5303;53.266;10.410;2023-10-13T10:30:31;7.93;;;5.97;;
10509;SDS011;5303;53.266;10.410;2023-10-13T10:33:07;7.83;;;6.30;;
10509;SDS011;5303;53.266;10.410;2023-10-13T10:35:37;7.67;;;5.50;;
10509;SDS011;5303;53.266;10.410;2023-10-13T10:41:00;9.13;;;6.50;;
10509;SDS011;5303;53.266;10.410;2023-10-13T10:43:30;10.03;;;6.67;;
10509;SDS011;5303;53.266;10.410;2023-10-13T10:46:08;8.73;;;6.33;;
10509;SDS011;5303;53.266;10.410;2023-10-13T10:48:36;11.53;;;6.43;;
10509;SDS011;5303;53.266;10.410;2023-10-13T10:51:03;10.13;;;6.03;;
10509;SDS011;5303;53.266;10.410;2023-10-13T10:53:33;8.47;;;6.00;;
10509;SDS011;5303;53.266;10.410;2023-10-13T10:56:06;9.20;;;6.33;;
10509;SDS011;5303;53.266;10.410;2023-10-13T10:58:44;7.27;;;5.53;;
10509;SDS011;5303;53.266;10.410;2023-10-13T11:01:10;12.97;;;6.27;;
10509;SDS011;5303;53.266;10.410;2023-10-13T11:03:36;8.57;;;6.13;;
10509;SDS011;5303;53.266;10.410;2023-10-13T11:06:07;9.87;;;5.90;;
10509;SDS011;5303;53.266;10.410;2023-10-13T11:08:43;10.03;;;5.60;;
10509;SDS011;5303;53.266;10.410;2023-10-13T11:11:15;6.90;;;5.60;;
10509;SDS011;5303;53.266;10.410;2023-10-13T11:13:43;9.93;;;5.30;;
10509;SDS011;5303;53.266;10.410;2023-10-13T11:16:44;9.17;;;5.70;;
10509;SDS011;5303;53.266;10.410;2023-10-13T11:19:10;8.50;;;5.80;;
10509;SDS011;5303;53.266;10.410;2023-10-13T11:21:36;8.57;;;5.80;;
10509;SDS011;5303;53.266;10.410;2023-10-13T11:24:02;8.27;;;4.87;;
10509;SDS011;5303;53.266;10.410;2023-10-13T11:26:36;7.80;;;4.80;;
10509;SDS011;5303;53.266;10.410;2023-10-13T11:29:15;10.67;;;5.30;;
10509;SDS011;5303;53.266;10.410;2023-10-13T11:31:44;8.33;;;4.87;;
10509;SDS011;5303;53.266;10.410;2023-10-13T11:34:10;9.50;;;5.23;;
10509;SDS011;5303;53.266;10.410;2023-10-13T11:36:41;9.93;;;5.63;;
10509;SDS011;5303;53.266;10.410;2023-10-13T11:39:07;7.10;;;4.80;;
10509;SDS011;5303;53.266;10.410;2023-10-13T11:41:32;10.93;;;5.40;;
10509;SDS011;5303;53.266;10.410;2023-10-13T11:44:03;9.30;;;5.40;;
10509;SDS011;5303;53.266;10.410;2023-10-13T11:46:48;8.73;;;4.97;;
10509;SDS011;5303;53.266;10.410;2023-10-13T11:49:13;8.03;;;5.27;;
10509;SDS011;5303;53.266;10.410;2023-10-13T11:51:43;6.23;;;4.77;;
10509;SDS011;5303;53.266;10.410;2023-10-13T11:54:14;10.70;;;5.03;;
10509;SDS011;5303;53.266;10.410;2023-10-13T11:56:43;9.77;;;4.90;;
10509;SDS011;5303;53.266;10.410;2023-10-13T11:59:09;9.80;;;4.80;;
10509;SDS011;5303;53.266;10.410;2023-10-13T12:01:46;10.00;;;4.80;;
10509;SDS011;5303;53.266;10.410;2023-10-13T12:04:33;9.43;;;4.53;;
10509;SDS011;5303;53.266;10.410;2023-10-13T12:07:06;9.40;;;4.93;;
10509;SDS011;5303;53.266;10.410;2023-10-13T12:09:51;10.57;;;4.90;;
10509;SDS011;5303;53.266;10.410;2023-10-13T12:12:27;10.07;;;5.30;;
10509;SDS011;5303;53.266;10.410;2023-10-13T12:14:55;10.07;;;4.70;;
10509;SDS011;5303;53.266;10.410;2023-10-13T12:17:21;8.37;;;4.87;;
10509;SDS011;5303;53.266;10.410;2023-10-13T12:20:02;7.87;;;4.90;;
10509;SDS011;5303;53.266;10.410;2023-10-13T12:22:34;8.77;;;5.20;;
10509;SDS011;5303;53.266;10.410;2023-10-13T12:25:10;8.07;;;4.97;;
10509;SDS011;5303;53.266;10.410;2023-10-13T12:27:49;12.80;;;5.47;;
10509;SDS011;5303;53.266;10.410;2023-10-13T12:30:21;12.10;;;4.27;;
10509;SDS011;5303;53.266;10.410;2023-10-13T12:33:13;9.07;;;4.70;;
10509;SDS011;5303;53.266;10.410;2023-10-13T12:35:41;10.37;;;5.07;;
10509;SDS011;5303;53.266;10.410;2023-10-13T12:38:23;7.80;;;4.60;;
10509;SDS011;5303;53.266;10.410;2023-10-13T12:41:05;11.47;;;5.17;;
10509;SDS011;5303;53.266;10.410;2023-10-13T12:43:49;9.33;;;5.10;;
10509;SDS011;5303;53.266;10.410;2023-10-13T12:46:33;10.47;;;5.53;;
10509;SDS011;5303;53.266;10.410;2023-10-13T12:49:17;10.18;;;5.18;;
10509;SDS011;5303;53.266;10.410;2023-10-13T12:52:01;10.85;;;5.40;;
10509;SDS011;5303;53.266;10.410;2023-10-13T12:54:26;9.67;;;5.20;;
10509;SDS011;5303;53.266;10.410;2023-10-13T12:57:00;11.30;;;5.40;;
10509;SDS011;5303;53.266;10.410;2023-10-13T12:59:25;10.13;;;5.23;;
10509;SDS011;5303;53.266;10.410;2023-10-13T13:01:51;9.63;;;4.72;;
10509;SDS011;5303;53.266;10.410;2023-10-13T13:04:18;8.02;;;5.20;;
10509;SDS011;5303;53.266;10.410;2023-10-13T13:06:45;10.52;;;5.25;;
10509;SDS011;5303;53.266;10.410;2023-10-13T13:09:14;7.82;;;4.97;;
10509;SDS011;5303;53.266;10.410;2023-10-13T13:11:40;10.32;;;5.60;;
10509;SDS011;5303;53.266;10.410;2023-10-13T13:14:08;13.57;;;5.85;;
10509;SDS011;5303;53.266;10.410;2023-10-13T13:16:34;9.93;;;5.70;;
10509;SDS011;5303;53.266;10.410;2023-10-13T13:19:01;8.18;;;5.50;;
10509;SDS011;5303;53.266;10.410;2023-10-13T13:21:35;8.95;;;5.32;;
10509;SDS011;5303;53.266;10.410;2023-10-13T13:24:01;9.33;;;5.60;;
10509;SDS011;5303;53.266;10.410;2023-10-13T13:26:29;15.87;;;5.50;;
10509;SDS011;5303;53.266;10.410;2023-10-13T13:28:56;11.95;;;6.07;;
10509;SDS011;5303;53.266;10.410;2023-10-13T13:31:21;10.25;;;5.45;;
10509;SDS011;5303;53.266;10.410;2023-10-13T13:33:52;10.73;;;5.65;;
10509;SDS011;5303;53.266;10.410;2023-10-13T13:36:17;10.40;;;6.17;;
10509;SDS011;5303;53.266;10.410;2023-10-13T13:38:44;12.07;;;5.90;;
10509;SDS011;5303;53.266;10.410;2023-10-13T13:41:19;10.27;;;5.63;;
10509;SDS011;5303;53.266;10.410;2023-10-13T13:43:46;15.13;;;6.25;;
10509;SDS011;5303;53.266;10.410;2023-10-13T13:46:15;9.75;;;5.53;;
10509;SDS011;5303;53.266;10.410;2023-10-13T13:48:52;11.90;;;6.05;;
10509;SDS011;5303;53.266;10.410;2023-10-13T13:51:25;11.70;;;5.75;;
10509;SDS011;5303;53.266;10.410;2023-10-13T13:53:54;11.05;;;5.90;;
10509;SDS011;5303;53.266;10.410;2023-10-13T13:56:21;11.82;;;5.38;;
10509;SDS011;5303;53.266;10.410;2023-10-13T13:58:50;11.02;;;5.50;;
10509;SDS011;5303;53.266;10.410;2023-10-13T14:01:16;12.23;;;6.10;;
10509;SDS011;5303;53.266;10.410;2023-10-13T14:03:47;8.00;;;5.75;;
10509;SDS011;5303;53.266;10.410;2023-10-13T14:06:16;9.95;;;5.70;;
10509;SDS011;5303;53.266;10.410;2023-10-13T14:08:46;13.50;;;5.80;;
10509;SDS011;5303;53.266;10.410;2023-10-13T14:11:35;8.52;;;5.57;;
10509;SDS011;5303;53.266;10.410;2023-10-13T14:14:03;9.70;;;5.18;;
10509;SDS011;5303;53.266;10.410;2023-10-13T14:16:51;11.53;;;5.83;;
10509;SDS011;5303;53.266;10.410;2023-10-13T14:19:18;14.25;;;6.03;;
10509;SDS011;5303;53.266;10.410;2023-10-13T14:21:53;11.68;;;5.82;;
10509;SDS011;5303;53.266;10.410;2023-10-13T14:24:19;14.83;;;5.93;;
10509;SDS011;5303;53.266;10.410;2023-10-13T14:26:52;8.63;;;5.60;;
10509;SDS011;5303;53.266;10.410;2023-10-13T14:29:21;14.53;;;5.97;;
10509;SDS011;5303;53.266;10.410;2023-10-13T14:31:51;10.70;;;5.87;;
10509;SDS011;5303;53.266;10.410;2023-10-13T14:34:16;13.27;;;6.43;;
10509;SDS011;5303;53.266;10.410;2023-10-13T14:36:41;14.65;;;5.75;;
10509;SDS011;5303;53.266;10.410;2023-10-13T14:39:13;10.23;;;5.68;;
10509;SDS011;5303;53.266;10.410;2023-10-13T14:41:38;11.17;;;5.53;;
10509;SDS011;5303;53.266;10.410;2023-10-13T14:44:04;14.73;;;6.07;;
10509;SDS011;5303;53.266;10.410;2023-10-13T14:46:33;14.50;;;6.28;;
10509;SDS011;5303;53.266;10.410;2023-10-13T14:49:04;16.70;;;6.47;;
10509;SDS011;5303;53.266;10.410;2023-10-13T14:51:30;10.88;;;5.90;;
10509;SDS011;5303;53.266;10.410;2023-10-13T14:53:56;12.07;;;5.82;;
10509;SDS011;5303;53.266;10.410;2023-10-13T14:56:24;14.07;;;6.13;;
10509;SDS011;5303;53.266;10.410;2023-10-13T14:58:51;15.93;;;6.18;;
10509;SDS011;5303;53.266;10.410;2023-10-13T15:01:18;11.55;;;5.68;;
10509;SDS011;5303;53.266;10.410;2023-10-13T15:03:45;12.95;;;6.03;;
10509;SDS011;5303;53.266;10.410;2023-10-13T15:06:20;13.73;;;6.50;;
10509;SDS011;5303;53.266;10.410;2023-10-13T15:08:50;10.50;;;6.63;;
10509;SDS011;5303;53.266;10.410;2023-10-13T15:11:17;11.20;;;6.50;;
10509;SDS011;5303;53.266;10.410;2023-10-13T15:13:45;11.90;;;6.35;;
10509;SDS011;5303;53.266;10.410;2023-10-13T15:16:17;14.90;;;6.43;;
10509;SDS011;5303;53.266;10.410;2023-10-13T15:18:50;15.82;;;6.18;;
10509;SDS011;5303;53.266;10.410;2023-10-13T15:21:23;14.15;;;6.45;;
10509;SDS011;5303;53.266;10.410;2023-10-13T15:24:16;14.33;;;6.60;;
10509;SDS011;5303;53.266;10.410;2023-10-13T15:26:45;12.90;;;6.30;;
10509;SDS011;5303;53.266;10.410;2023-10-13T15:29:16;15.27;;;6.78;;
10509;SDS011;5303;53.266;10.410;2023-10-13T15:31:45;15.33;;;6.77;;
10509;SDS011;5303;53.266;10.410;2023-10-13T15:34:30;12.82;;;6.22;;
10509;SDS011;5303;53.266;10.410;2023-10-13T15:36:56;14.63;;;6.32;;